sensor_id;sensor_type;location;lat;lon;timestamp;pressure;altitude;pressure_sealevel;temperature;humidity
77165;BME280;66140;50.280;18.660;2023-04-15T05:03:37;97927.34;;;6.09;100.00
77165;BME280;66140;50.280;18.660;2023-04-15T05:06:02;97934.28;;;6.10;100.00
77165;BME280;66140;50.280;18.660;2023-04-15T05:08:30;97933.16;;;6.14;100.00
77165;BME280;66140;50.280;18.660;2023-04-15T05:10:55;97938.97;;;6.19;100.00
77165;BME280;66140;50.280;18.660;2023-04-15T05:13:21;97942.91;;;6.26;100.00
77165;BME280;66140;50.280;18.660;2023-04-15T05:15:46;97925.84;;;6.31;100.00
77165;BME280;66140;50.280;18.660;2023-04-15T05:18:12;97928.00;;;6.39;100.00
77165;BME280;66140;50.280;18.660;2023-04-15T05:20:37;97930.75;;;6.50;100.00
77165;BME280;66140;50.280;18.660;2023-04-15T05:23:03;97924.03;;;6.59;100.00
77165;BME280;66140;50.280;18.660;2023-04-15T05:25:28;97932.91;;;6.70;100.00
77165;BME280;66140;50.280;18.660;2023-04-15T05:27:54;97928.94;;;6.77;100.00
77165;BME280;66140;50.280;18.660;2023-04-15T05:30:19;97937.38;;;6.95;100.00
77165;BME280;66140;50.280;18.660;2023-04-15T05:32:45;97944.78;;;7.03;100.00
77165;BME280;66140;50.280;18.660;2023-04-15T05:35:11;97938.00;;;7.11;100.00
77165;BME280;66140;50.280;18.660;2023-04-15T05:37:53;97920.31;;;7.13;100.00
77165;BME280;66140;50.280;18.660;2023-04-15T05:40:21;97926.75;;;7.22;100.00
77165;BME280;66140;50.280;18.660;2023-04-15T05:42:47;97918.84;;;7.22;100.00
77165;BME280;66140;50.280;18.660;2023-04-15T05:45:13;97936.22;;;7.37;100.00
77165;BME280;66140;50.280;18.660;2023-04-15T05:48:13;97925.78;;;7.36;100.00
77165;BME280;66140;50.280;18.660;2023-04-15T05:50:57;97936.09;;;7.51;100.00
77165;BME280;66140;50.280;18.660;2023-04-15T05:53:34;97940.63;;;7.62;100.00
77165;BME280;66140;50.280;18.660;2023-04-15T05:56:00;97942.28;;;7.76;100.00
77165;BME280;66140;50.280;18.660;2023-04-15T05:58:25;97920.06;;;7.67;100.00
77165;BME280;66140;50.280;18.660;2023-04-15T06:00:51;97930.59;;;7.67;100.00
77165;BME280;66140;50.280;18.660;2023-04-15T06:03:16;97925.44;;;7.65;98.53
77165;BME280;66140;50.280;18.660;2023-04-15T06:05:42;97937.97;;;7.75;97.99
77165;BME280;66140;50.280;18.660;2023-04-15T06:08:08;97942.28;;;7.76;97.29
77165;BME280;66140;50.280;18.660;2023-04-15T06:10:34;97948.50;;;7.87;97.24
77165;BME280;66140;50.280;18.660;2023-04-15T06:13:03;97949.53;;;7.97;96.20
77165;BME280;66140;50.280;18.660;2023-04-15T06:15:29;97959.66;;;8.03;95.52
77165;BME280;66140;50.280;18.660;2023-04-15T06:17:55;97950.69;;;8.06;95.68
77165;BME280;66140;50.280;18.660;2023-04-15T06:20:20;97954.56;;;8.13;95.41
77165;BME280;66140;50.280;18.660;2023-04-15T06:22:46;97950.75;;;8.17;94.05
77165;BME280;66140;50.280;18.660;2023-04-15T06:25:11;97955.91;;;8.31;94.47
77165;BME280;66140;50.280;18.660;2023-04-15T06:27:37;97953.28;;;8.31;93.47
77165;BME280;66140;50.280;18.660;2023-04-15T06:30:03;97953.53;;;8.39;92.46
77165;BME280;66140;50.280;18.660;2023-04-15T06:32:28;97950.44;;;8.45;92.32
77165;BME280;66140;50.280;18.660;2023-04-15T06:34:54;97980.16;;;9.08;90.82
77165;BME280;66140;50.280;18.660;2023-04-15T06:37:19;97969.16;;;10.03;88.00
77165;BME280;66140;50.280;18.660;2023-04-15T06:39:45;97966.31;;;11.13;79.69
77165;BME280;66140;50.280;18.660;2023-04-15T06:42:11;97963.78;;;11.32;77.92
77165;BME280;66140;50.280;18.660;2023-04-15T06:44:41;97971.34;;;12.18;77.32
77165;BME280;66140;50.280;18.660;2023-04-15T06:47:06;97969.50;;;12.59;74.94
77165;BME280;66140;50.280;18.660;2023-04-15T06:49:33;97972.31;;;12.96;73.51
77165;BME280;66140;50.280;18.660;2023-04-15T06:51:59;97968.31;;;13.67;69.12
77165;BME280;66140;50.280;18.660;2023-04-15T06:54:25;97973.94;;;14.38;67.77
77165;BME280;66140;50.280;18.660;2023-04-15T06:56:51;97964.78;;;14.40;65.61
77165;BME280;66140;50.280;18.660;2023-04-15T06:59:16;97967.84;;;13.81;68.41
77165;BME280;66140;50.280;18.660;2023-04-15T07:01:42;97973.88;;;13.17;69.32
77165;BME280;66140;50.280;18.660;2023-04-15T07:04:07;97961.09;;;12.92;70.38
77165;BME280;66140;50.280;18.660;2023-04-15T07:06:33;97975.59;;;13.65;72.90
77165;BME280;66140;50.280;18.660;2023-04-15T07:09:01;97962.53;;;13.81;68.71
77165;BME280;66140;50.280;18.660;2023-04-15T07:11:29;97966.22;;;14.08;66.63
77165;BME280;66140;50.280;18.660;2023-04-15T07:13:54;97961.94;;;14.15;65.20
77165;BME280;66140;50.280;18.660;2023-04-15T07:16:20;97962.19;;;14.21;65.35
77165;BME280;66140;50.280;18.660;2023-04-15T07:18:46;97971.44;;;14.27;66.38
77165;BME280;66140;50.280;18.660;2023-04-15T07:21:11;97977.19;;;14.22;63.67
77165;BME280;66140;50.280;18.660;2023-04-15T07:23:36;97981.19;;;13.81;64.50
77165;BME280;66140;50.280;18.660;2023-04-15T07:26:02;97979.31;;;13.25;64.18
77165;BME280;66140;50.280;18.660;2023-04-15T07:28:28;97976.53;;;13.37;64.96
77165;BME280;66140;50.280;18.660;2023-04-15T07:30:54;97986.06;;;13.86;68.41
77165;BME280;66140;50.280;18.660;2023-04-15T07:33:21;97979.13;;;14.02;66.46
77165;BME280;66140;50.280;18.660;2023-04-15T07:35:47;97977.06;;;14.24;62.42
77165;BME280;66140;50.280;18.660;2023-04-15T07:38:12;97971.63;;;14.88;55.48
77165;BME280;66140;50.280;18.660;2023-04-15T07:40:38;97988.72;;;14.77;55.29
77165;BME280;66140;50.280;18.660;2023-04-15T07:43:04;97978.03;;;14.95;55.98
77165;BME280;66140;50.280;18.660;2023-04-15T07:45:30;97983.47;;;15.21;56.72
77165;BME280;66140;50.280;18.660;2023-04-15T07:47:56;97969.75;;;15.59;53.77
77165;BME280;66140;50.280;18.660;2023-04-15T07:50:21;97978.06;;;15.82;53.28
77165;BME280;66140;50.280;18.660;2023-04-15T07:52:48;97984.47;;;15.63;52.45
77165;BME280;66140;50.280;18.660;2023-04-15T07:55:14;97987.44;;;15.17;51.56
77165;BME280;66140;50.280;18.660;2023-04-15T07:57:41;97982.91;;;15.00;52.31
77165;BME280;66140;50.280;18.660;2023-04-15T08:00:07;97979.63;;;15.06;55.87
77165;BME280;66140;50.280;18.660;2023-04-15T08:02:33;97986.56;;;14.99;54.33
77165;BME280;66140;50.280;18.660;2023-04-15T08:04:59;97980.41;;;14.98;54.46
77165;BME280;66140;50.280;18.660;2023-04-15T08:07:27;97976.13;;;15.23;53.71
77165;BME280;66140;50.280;18.660;2023-04-15T08:09:52;97971.25;;;15.62;56.40
77165;BME280;66140;50.280;18.660;2023-04-15T08:12:17;97982.09;;;15.43;56.95
77165;BME280;66140;50.280;18.660;2023-04-15T08:14:45;97982.91;;;15.35;52.21
77165;BME280;66140;50.280;18.660;2023-04-15T08:17:11;97977.94;;;15.05;55.95
77165;BME280;66140;50.280;18.660;2023-04-15T08:19:36;97973.59;;;14.86;55.55
77165;BME280;66140;50.280;18.660;2023-04-15T08:22:02;97976.44;;;15.20;55.42
77165;BME280;66140;50.280;18.660;2023-04-15T08:24:31;97976.75;;;15.43;52.78
77165;BME280;66140;50.280;18.660;2023-04-15T08:26:57;97975.31;;;15.48;53.45
77165;BME280;66140;50.280;18.660;2023-04-15T08:29:22;97989.69;;;15.47;52.11
77165;BME280;66140;50.280;18.660;2023-04-15T08:31:48;97993.03;;;15.67;54.42
77165;BME280;66140;50.280;18.660;2023-04-15T08:34:14;97980.59;;;15.58;51.46
77165;BME280;66140;50.280;18.660;2023-04-15T08:36:40;97979.28;;;15.44;52.00
77165;BME280;66140;50.280;18.660;2023-04-15T08:39:08;97974.13;;;15.25;51.84
77165;BME280;66140;50.280;18.660;2023-04-15T08:42:02;97983.13;;;15.24;51.60
77165;BME280;66140;50.280;18.660;2023-04-15T08:44:33;97986.22;;;15.29;51.00
77165;BME280;66140;50.280;18.660;2023-04-15T08:47:03;97984.53;;;15.10;52.20
77165;BME280;66140;50.280;18.660;2023-04-15T08:49:31;97977.72;;;14.80;50.97
77165;BME280;66140;50.280;18.660;2023-04-15T08:51:58;97983.06;;;14.63;53.33
77165;BME280;66140;50.280;18.660;2023-04-15T08:54:23;97976.41;;;14.49;53.61
77165;BME280;66140;50.280;18.660;2023-04-15T08:56:49;97975.59;;;14.84;53.70
77165;BME280;66140;50.280;18.660;2023-04-15T08:59:16;97985.69;;;15.08;53.61
77165;BME280;66140;50.280;18.660;2023-04-15T09:01:42;97981.47;;;15.23;54.01
77165;BME280;66140;50.280;18.660;2023-04-15T09:04:10;97980.31;;;15.25;52.58
77165;BME280;66140;50.280;18.660;2023-04-15T09:06:38;97979.34;;;15.09;52.70
77165;BME280;66140;50.280;18.660;2023-04-15T09:09:05;97977.09;;;15.04;53.13
77165;BME280;66140;50.280;18.660;2023-04-15T09:11:31;97976.59;;;15.01;52.34
77165;BME280;66140;50.280;18.660;2023-04-15T09:13:56;97979.88;;;15.12;54.56
77165;BME280;66140;50.280;18.660;2023-04-15T09:16:22;97980.63;;;15.22;53.07
77165;BME280;66140;50.280;18.660;2023-04-15T09:18:48;97981.91;;;15.18;54.16
77165;BME280;66140;50.280;18.660;2023-04-15T09:21:15;97982.69;;;15.11;54.25
77165;BME280;66140;50.280;18.660;2023-04-15T09:23:53;97997.50;;;15.23;53.33
77165;BME280;66140;50.280;18.660;2023-04-15T09:26:36;97974.78;;;14.83;50.92
77165;BME280;66140;50.280;18.660;2023-04-15T09:29:08;97992.28;;;14.68;52.54
77165;BME280;66140;50.280;18.660;2023-04-15T09:31:38;97980.25;;;14.64;51.98
77165;BME280;66140;50.280;18.660;2023-04-15T09:34:04;97982.81;;;14.56;51.85
77165;BME280;66140;50.280;18.660;2023-04-15T09:36:58;97984.19;;;13.96;53.20
77165;BME280;66140;50.280;18.660;2023-04-15T09:39:23;97984.25;;;13.86;53.70
77165;BME280;66140;50.280;18.660;2023-04-15T09:42:05;97975.13;;;13.89;53.05
77165;BME280;66140;50.280;18.660;2023-04-15T09:44:31;97971.31;;;13.91;53.39
77165;BME280;66140;50.280;18.660;2023-04-15T09:46:57;97976.06;;;13.97;53.96
77165;BME280;66140;50.280;18.660;2023-04-15T09:49:23;97977.22;;;13.85;53.12
77165;BME280;66140;50.280;18.660;2023-04-15T09:51:48;97980.66;;;13.68;52.80
77165;BME280;66140;50.280;18.660;2023-04-15T09:54:18;97986.25;;;13.65;53.28
77165;BME280;66140;50.280;18.660;2023-04-15T09:56:48;97972.94;;;13.65;54.02
77165;BME280;66140;50.280;18.660;2023-04-15T09:59:14;97983.19;;;13.60;53.77
77165;BME280;66140;50.280;18.660;2023-04-15T10:01:41;97976.59;;;13.64;52.70
77165;BME280;66140;50.280;18.660;2023-04-15T10:04:10;97978.41;;;13.63;52.67
77165;BME280;66140;50.280;18.660;2023-04-15T10:06:36;97983.66;;;13.92;54.57
77165;BME280;66140;50.280;18.660;2023-04-15T10:09:01;97980.59;;;13.87;52.49
77165;BME280;66140;50.280;18.660;2023-04-15T10:11:28;97977.22;;;13.85;52.69
77165;BME280;66140;50.280;18.660;2023-04-15T10:13:55;97983.16;;;13.79;54.32
77165;BME280;66140;50.280;18.660;2023-04-15T10:16:22;97971.69;;;13.59;54.09
77165;BME280;66140;50.280;18.660;2023-04-15T10:18:58;97978.16;;;13.57;54.84
77165;BME280;66140;50.280;18.660;2023-04-15T10:21:26;97976.16;;;13.69;54.07
77165;BME280;66140;50.280;18.660;2023-04-15T10:23:57;97971.38;;;13.82;53.31
77165;BME280;66140;50.280;18.660;2023-04-15T10:26:23;97967.66;;;13.92;53.70
77165;BME280;66140;50.280;18.660;2023-04-15T10:28:52;97966.34;;;14.06;54.10
77165;BME280;66140;50.280;18.660;2023-04-15T10:31:18;97974.63;;;14.40;52.21
77165;BME280;66140;50.280;18.660;2023-04-15T10:33:44;97964.03;;;14.48;50.74
77165;BME280;66140;50.280;18.660;2023-04-15T10:36:11;97967.00;;;14.45;50.90
77165;BME280;66140;50.280;18.660;2023-04-15T10:38:50;97971.06;;;14.49;50.84
77165;BME280;66140;50.280;18.660;2023-04-15T10:41:26;97976.72;;;14.64;53.51
77165;BME280;66140;50.280;18.660;2023-04-15T10:44:03;97974.53;;;14.59;49.76
77165;BME280;66140;50.280;18.660;2023-04-15T10:46:44;97974.91;;;14.64;49.86
77165;BME280;66140;50.280;18.660;2023-04-15T10:49:12;97960.53;;;14.48;51.32
77165;BME280;66140;50.280;18.660;2023-04-15T10:51:51;97974.88;;;14.47;50.29
77165;BME280;66140;50.280;18.660;2023-04-15T10:54:32;97962.94;;;14.41;49.55
77165;BME280;66140;50.280;18.660;2023-04-15T10:57:24;97961.53;;;14.37;50.74
77165;BME280;66140;50.280;18.660;2023-04-15T11:05:17;97966.03;;;14.36;50.46
77165;BME280;66140;50.280;18.660;2023-04-15T11:12:47;97988.66;;;14.42;49.68
77165;BME280;66140;50.280;18.660;2023-04-15T11:15:37;97986.59;;;14.54;50.45
77165;BME280;66140;50.280;18.660;2023-04-15T11:20:51;97983.34;;;14.60;50.05
77165;BME280;66140;50.280;18.660;2023-04-15T11:23:30;97987.81;;;14.41;49.85
77165;BME280;66140;50.280;18.660;2023-04-15T11:25:58;97977.84;;;14.34;50.19
77165;BME280;66140;50.280;18.660;2023-04-15T11:28:30;97977.16;;;14.32;50.90
77165;BME280;66140;50.280;18.660;2023-04-15T11:30:57;97981.88;;;14.20;49.65
77165;BME280;66140;50.280;18.660;2023-04-15T11:33:25;97978.78;;;14.15;51.60
77165;BME280;66140;50.280;18.660;2023-04-15T11:35:54;97994.38;;;14.20;49.64
77165;BME280;66140;50.280;18.660;2023-04-15T11:38:19;97989.50;;;14.05;55.18
77165;BME280;66140;50.280;18.660;2023-04-15T11:40:45;97996.28;;;13.90;58.80
77165;BME280;66140;50.280;18.660;2023-04-15T11:43:16;97990.75;;;13.74;61.43
77165;BME280;66140;50.280;18.660;2023-04-15T11:45:49;97997.91;;;13.64;66.48
77165;BME280;66140;50.280;18.660;2023-04-15T11:48:16;97995.31;;;13.35;64.56
77165;BME280;66140;50.280;18.660;2023-04-15T11:50:41;97998.97;;;13.24;66.77
77165;BME280;66140;50.280;18.660;2023-04-15T11:53:08;98002.59;;;13.04;68.03
77165;BME280;66140;50.280;18.660;2023-04-15T11:55:49;97997.81;;;12.89;71.25
77165;BME280;66140;50.280;18.660;2023-04-15T11:58:15;98012.50;;;12.83;70.85
77165;BME280;66140;50.280;18.660;2023-04-15T12:00:52;98010.16;;;12.80;71.50
77165;BME280;66140;50.280;18.660;2023-04-15T12:03:35;98012.34;;;12.75;69.01
77165;BME280;66140;50.280;18.660;2023-04-15T12:06:21;98006.44;;;12.62;73.56
77165;BME280;66140;50.280;18.660;2023-04-15T12:11:43;98020.72;;;12.41;73.61
77165;BME280;66140;50.280;18.660;2023-04-15T12:14:34;98000.78;;;12.26;80.01
77165;BME280;66140;50.280;18.660;2023-04-15T12:17:02;98019.28;;;12.37;80.43
77165;BME280;66140;50.280;18.660;2023-04-15T12:19:28;98011.31;;;12.37;80.26
77165;BME280;66140;50.280;18.660;2023-04-15T12:22:03;98010.06;;;12.41;74.19
77165;BME280;66140;50.280;18.660;2023-04-15T12:24:34;98002.53;;;12.56;67.27
77165;BME280;66140;50.280;18.660;2023-04-15T12:27:10;98002.84;;;12.72;61.82
77165;BME280;66140;50.280;18.660;2023-04-15T12:29:39;98012.66;;;12.91;60.57
77165;BME280;66140;50.280;18.660;2023-04-15T12:32:05;98011.00;;;13.09;59.31
77165;BME280;66140;50.280;18.660;2023-04-15T12:34:34;98006.25;;;13.22;59.13
77165;BME280;66140;50.280;18.660;2023-04-15T12:37:01;98005.66;;;13.38;56.24
77165;BME280;66140;50.280;18.660;2023-04-15T12:39:29;98010.56;;;13.62;59.13
77165;BME280;66140;50.280;18.660;2023-04-15T12:41:55;98018.50;;;13.81;58.10
77165;BME280;66140;50.280;18.660;2023-04-15T12:44:24;98015.34;;;13.95;61.68
77165;BME280;66140;50.280;18.660;2023-04-15T12:46:50;98017.47;;;14.01;56.49
77165;BME280;66140;50.280;18.660;2023-04-15T12:49:16;98015.88;;;14.09;53.70
77165;BME280;66140;50.280;18.660;2023-04-15T12:51:44;98023.66;;;14.29;56.09
77165;BME280;66140;50.280;18.660;2023-04-15T12:54:10;98013.81;;;14.39;55.47
77165;BME280;66140;50.280;18.660;2023-04-15T12:56:35;98015.06;;;14.45;59.89
77165;BME280;66140;50.280;18.660;2023-04-15T12:59:01;98007.97;;;14.54;59.88
77165;BME280;66140;50.280;18.660;2023-04-15T13:01:26;98017.81;;;14.53;58.76
77165;BME280;66140;50.280;18.660;2023-04-15T13:03:56;98009.34;;;14.40;58.61
77165;BME280;66140;50.280;18.660;2023-04-15T13:06:21;98003.34;;;14.19;58.58
77165;BME280;66140;50.280;18.660;2023-04-15T13:08:48;98003.69;;;14.06;59.58
77165;BME280;66140;50.280;18.660;2023-04-15T13:11:13;97998.75;;;14.11;59.25
77165;BME280;66140;50.280;18.660;2023-04-15T13:13:39;98006.59;;;14.13;55.96
77165;BME280;66140;50.280;18.660;2023-04-15T13:16:04;98003.34;;;14.19;59.57
77165;BME280;66140;50.280;18.660;2023-04-15T13:18:30;97999.38;;;14.23;56.57
77165;BME280;66140;50.280;18.660;2023-04-15T13:20:56;98007.38;;;14.32;56.88
77165;BME280;66140;50.280;18.660;2023-04-15T13:23:21;98005.97;;;14.28;54.19
77165;BME280;66140;50.280;18.660;2023-04-15T13:25:46;98012.69;;;14.32;54.44
77165;BME280;66140;50.280;18.660;2023-04-15T13:28:12;98012.38;;;14.35;57.02
77165;BME280;66140;50.280;18.660;2023-04-15T13:30:37;98017.16;;;14.41;53.62
77165;BME280;66140;50.280;18.660;2023-04-15T13:33:04;98022.94;;;14.37;52.47
77165;BME280;66140;50.280;18.660;2023-04-15T13:35:31;98017.06;;;14.33;55.39
77165;BME280;66140;50.280;18.660;2023-04-15T13:37:56;98019.69;;;14.43;57.23
77165;BME280;66140;50.280;18.660;2023-04-15T13:40:22;98013.81;;;14.30;56.83
77165;BME280;66140;50.280;18.660;2023-04-15T13:42:47;98026.25;;;14.12;55.03
77165;BME280;66140;50.280;18.660;2023-04-15T13:45:12;98027.13;;;14.02;55.47
77165;BME280;66140;50.280;18.660;2023-04-15T13:47:39;98035.31;;;14.01;55.27
77165;BME280;66140;50.280;18.660;2023-04-15T13:50:05;98012.56;;;13.97;54.49
77165;BME280;66140;50.280;18.660;2023-04-15T13:52:30;98027.56;;;13.98;54.68
77165;BME280;66140;50.280;18.660;2023-04-15T13:54:56;98023.66;;;13.92;55.44
77165;BME280;66140;50.280;18.660;2023-04-15T13:57:21;98014.59;;;13.76;57.36
77165;BME280;66140;50.280;18.660;2023-04-15T13:59:47;98012.66;;;13.68;58.14
77165;BME280;66140;50.280;18.660;2023-04-15T14:02:12;98021.78;;;13.56;57.97
77165;BME280;66140;50.280;18.660;2023-04-15T14:04:37;98014.38;;;13.50;57.29
77165;BME280;66140;50.280;18.660;2023-04-15T14:07:03;98027.13;;;13.46;57.56
77165;BME280;66140;50.280;18.660;2023-04-15T14:09:28;98022.09;;;13.43;57.09
77165;BME280;66140;50.280;18.660;2023-04-15T14:11:54;98023.63;;;13.36;57.33
77165;BME280;66140;50.280;18.660;2023-04-15T14:14:20;98030.38;;;13.31;57.83
77165;BME280;66140;50.280;18.660;2023-04-15T14:16:46;98028.13;;;13.36;56.53
77165;BME280;66140;50.280;18.660;2023-04-15T14:19:12;98034.84;;;13.40;56.79
77165;BME280;66140;50.280;18.660;2023-04-15T14:21:43;98041.59;;;13.44;58.50
77165;BME280;66140;50.280;18.660;2023-04-15T14:24:09;98051.41;;;13.43;58.55
77165;BME280;66140;50.280;18.660;2023-04-15T14:26:35;98042.69;;;13.32;58.28
77165;BME280;66140;50.280;18.660;2023-04-15T14:29:03;98047.19;;;13.31;58.54
77165;BME280;66140;50.280;18.660;2023-04-15T14:31:29;98051.69;;;13.31;58.64
77165;BME280;66140;50.280;18.660;2023-04-15T14:33:54;98057.28;;;13.28;59.37
77165;BME280;66140;50.280;18.660;2023-04-15T14:36:20;98057.28;;;13.18;60.38
77165;BME280;66140;50.280;18.660;2023-04-15T14:38:45;98054.31;;;13.11;62.63
77165;BME280;66140;50.280;18.660;2023-04-15T14:41:11;98048.13;;;13.01;65.27
77165;BME280;66140;50.280;18.660;2023-04-15T14:43:36;98053.41;;;12.82;63.60
77165;BME280;66140;50.280;18.660;2023-04-15T14:46:02;98066.84;;;12.71;67.34
77165;BME280;66140;50.280;18.660;2023-04-15T14:48:30;98063.06;;;12.64;66.67
77165;BME280;66140;50.280;18.660;2023-04-15T14:50:57;98055.06;;;12.64;65.67
77165;BME280;66140;50.280;18.660;2023-04-15T14:53:23;98069.22;;;12.74;63.24
77165;BME280;66140;50.280;18.660;2023-04-15T14:55:48;98066.28;;;12.67;64.97
77165;BME280;66140;50.280;18.660;2023-04-15T14:58:14;98064.75;;;12.74;65.62
77165;BME280;66140;50.280;18.660;2023-04-15T15:00:40;98070.66;;;12.78;64.70
77165;BME280;66140;50.280;18.660;2023-04-15T15:03:09;98069.22;;;12.74;66.67
77165;BME280;66140;50.280;18.660;2023-04-15T15:05:41;98069.09;;;12.75;67.74
77165;BME280;66140;50.280;18.660;2023-04-15T15:08:07;98075.44;;;12.84;64.01
77165;BME280;66140;50.280;18.660;2023-04-15T15:10:34;98071.25;;;12.91;64.43
77165;BME280;66140;50.280;18.660;2023-04-15T15:13:01;98070.41;;;12.91;66.04
77165;BME280;66140;50.280;18.660;2023-04-15T15:15:26;98078.38;;;13.00;65.68
77165;BME280;66140;50.280;18.660;2023-04-15T15:17:52;98075.13;;;12.87;64.40
77165;BME280;66140;50.280;18.660;2023-04-15T15:20:18;98070.38;;;12.81;65.28
77165;BME280;66140;50.280;18.660;2023-04-15T15:22:43;98073.56;;;12.75;63.90
77165;BME280;66140;50.280;18.660;2023-04-15T15:25:09;98087.31;;;12.70;66.09
77165;BME280;66140;50.280;18.660;2023-04-15T15:27:35;98097.22;;;12.68;64.85
77165;BME280;66140;50.280;18.660;2023-04-15T15:30:00;98084.88;;;12.58;64.42
77165;BME280;66140;50.280;18.660;2023-04-15T15:32:26;98089.78;;;12.62;65.68
77165;BME280;66140;50.280;18.660;2023-04-15T15:34:54;98074.78;;;12.52;64.92
77165;BME280;66140;50.280;18.660;2023-04-15T15:37:20;98088.22;;;12.50;64.73
77165;BME280;66140;50.280;18.660;2023-04-15T15:39:48;98088.22;;;12.50;64.01
77165;BME280;66140;50.280;18.660;2023-04-15T15:42:32;98096.31;;;12.49;66.10
77165;BME280;66140;50.280;18.660;2023-04-15T15:44:58;98098.25;;;12.37;66.27
77165;BME280;66140;50.280;18.660;2023-04-15T15:47:24;98081.53;;;12.25;66.86
77165;BME280;66140;50.280;18.660;2023-04-15T15:49:53;98092.88;;;12.27;66.97
77165;BME280;66140;50.280;18.660;2023-04-15T15:52:19;98094.84;;;12.25;67.33
77165;BME280;66140;50.280;18.660;2023-04-15T15:54:44;98099.91;;;12.28;69.84
77165;BME280;66140;50.280;18.660;2023-04-15T15:57:13;98091.97;;;12.17;68.49
77165;BME280;66140;50.280;18.660;2023-04-15T15:59:38;98089.59;;;12.14;67.16
77165;BME280;66140;50.280;18.660;2023-04-15T16:02:12;98096.13;;;12.10;70.19
77165;BME280;66140;50.280;18.660;2023-04-15T16:04:46;98102.91;;;12.14;68.33
77165;BME280;66140;50.280;18.660;2023-04-15T16:07:14;98106.34;;;12.05;72.44
77165;BME280;66140;50.280;18.660;2023-04-15T16:09:40;98123.53;;;12.01;72.46
77165;BME280;66140;50.280;18.660;2023-04-15T16:12:06;98134.69;;;11.95;72.15
77165;BME280;66140;50.280;18.660;2023-04-15T16:14:32;98131.91;;;11.76;74.42
77165;BME280;66140;50.280;18.660;2023-04-15T16:16:57;98139.09;;;11.53;75.33
77165;BME280;66140;50.280;18.660;2023-04-15T16:19:23;98164.16;;;11.39;77.26
77165;BME280;66140;50.280;18.660;2023-04-15T16:21:48;98163.13;;;11.19;81.90
77165;BME280;66140;50.280;18.660;2023-04-15T16:24:13;98159.19;;;10.92;86.00
77165;BME280;66140;50.280;18.660;2023-04-15T16:26:40;98169.94;;;10.68;87.92
77165;BME280;66140;50.280;18.660;2023-04-15T16:29:05;98168.38;;;10.43;92.20
77165;BME280;66140;50.280;18.660;2023-04-15T16:31:30;98165.69;;;10.32;90.98
77165;BME280;66140;50.280;18.660;2023-04-15T16:33:56;98178.72;;;10.24;93.45
77165;BME280;66140;50.280;18.660;2023-04-15T16:36:21;98166.34;;;10.00;92.74
77165;BME280;66140;50.280;18.660;2023-04-15T16:38:47;98167.75;;;9.82;96.17
77165;BME280;66140;50.280;18.660;2023-04-15T16:41:13;98173.41;;;9.54;98.69
77165;BME280;66140;50.280;18.660;2023-04-15T16:43:39;98165.28;;;9.33;100.00
77165;BME280;66140;50.280;18.660;2023-04-15T16:46:04;98160.50;;;9.14;98.12
77165;BME280;66140;50.280;18.660;2023-04-15T16:48:30;98172.97;;;9.12;100.00
77165;BME280;66140;50.280;18.660;2023-04-15T16:50:55;98174.47;;;9.04;100.00
77165;BME280;66140;50.280;18.660;2023-04-15T16:53:21;98182.75;;;8.99;100.00
77165;BME280;66140;50.280;18.660;2023-04-15T16:55:46;98178.13;;;8.90;100.00
77165;BME280;66140;50.280;18.660;2023-04-15T16:58:12;98201.41;;;8.85;100.00
77165;BME280;66140;50.280;18.660;2023-04-15T17:00:40;98198.34;;;8.78;100.00
77165;BME280;66140;50.280;18.660;2023-04-15T17:03:05;98212.66;;;8.76;100.00
77165;BME280;66140;50.280;18.660;2023-04-15T17:05:31;98230.09;;;8.78;100.00
77165;BME280;66140;50.280;18.660;2023-04-15T17:07:56;98236.34;;;8.77;100.00
77165;BME280;66140;50.280;18.660;2023-04-15T17:10:22;98237.41;;;8.75;100.00
77165;BME280;66140;50.280;18.660;2023-04-15T17:12:48;98241.94;;;8.73;100.00
77165;BME280;66140;50.280;18.660;2023-04-15T17:15:16;98235.91;;;8.71;100.00
77165;BME280;66140;50.280;18.660;2023-04-15T17:17:41;98240.25;;;8.72;100.00
77165;BME280;66140;50.280;18.660;2023-04-15T17:20:07;98238.78;;;8.68;100.00
77165;BME280;66140;50.280;18.660;2023-04-15T17:22:33;98237.19;;;8.65;100.00
77165;BME280;66140;50.280;18.660;2023-04-15T17:24:58;98260.69;;;8.70;100.00
77165;BME280;66140;50.280;18.660;2023-04-15T17:27:24;98251.06;;;8.69;100.00
77165;BME280;66140;50.280;18.660;2023-04-15T17:29:51;98248.63;;;8.66;100.00
77165;BME280;66140;50.280;18.660;2023-04-15T17:32:17;98250.97;;;8.58;100.00
77165;BME280;66140;50.280;18.660;2023-04-15T17:34:42;98258.91;;;8.58;100.00
77165;BME280;66140;50.280;18.660;2023-04-15T17:37:08;98256.47;;;8.55;100.00
77165;BME280;66140;50.280;18.660;2023-04-15T17:39:48;98266.19;;;8.54;100.00
77165;BME280;66140;50.280;18.660;2023-04-15T17:42:13;98282.47;;;8.61;100.00
77165;BME280;66140;50.280;18.660;2023-04-15T17:44:40;98278.22;;;8.58;100.00
77165;BME280;66140;50.280;18.660;2023-04-15T17:47:05;98297.41;;;8.62;100.00
77165;BME280;66140;50.280;18.660;2023-04-15T17:49:31;98295.78;;;8.59;100.00
77165;BME280;66140;50.280;18.660;2023-04-15T17:51:58;98299.09;;;8.63;100.00
77165;BME280;66140;50.280;18.660;2023-04-15T17:54:24;98302.16;;;8.57;100.00
77165;BME280;66140;50.280;18.660;2023-04-15T17:56:49;98323.00;;;8.61;100.00
77165;BME280;66140;50.280;18.660;2023-04-15T17:59:15;98331.78;;;8.62;100.00
77165;BME280;66140;50.280;18.660;2023-04-15T18:01:41;98333.47;;;8.63;100.00
77165;BME280;66140;50.280;18.660;2023-04-15T18:04:07;98339.38;;;8.66;100.00
77165;BME280;66140;50.280;18.660;2023-04-15T18:06:42;98350.81;;;8.67;100.00
77165;BME280;66140;50.280;18.660;2023-04-15T18:09:21;98330.50;;;8.55;100.00
77165;BME280;66140;50.280;18.660;2023-04-15T18:12:19;98356.94;;;8.55;100.00